createdAt,value
2023-10-29T00:05:15.597Z,9.14
2023-10-29T00:10:21.049Z,9.09
2023-10-29T00:15:25.521Z,9.12
2023-10-29T00:20:29.509Z,9.14
2023-10-29T00:25:33.740Z,9.18
2023-10-29T00:30:37.053Z,9.23
2023-10-29T00:35:40.630Z,9.30
2023-10-29T00:40:44.417Z,9.33
2023-10-29T00:45:52.724Z,9.32
2023-10-29T00:50:57.861Z,9.34
2023-10-29T00:56:03.272Z,9.37
2023-10-29T01:05:18.282Z,9.48
2023-10-29T01:10:22.195Z,9.31
2023-10-29T01:15:27.247Z,9.35
2023-10-29T01:20:31.604Z,9.41
2023-10-29T01:25:35.331Z,9.44
2023-10-29T01:30:38.938Z,9.38
2023-10-29T01:35:43.069Z,9.43
2023-10-29T01:40:49.807Z,9.42
2023-10-29T01:45:53.417Z,9.36
2023-10-29T01:50:58.798Z,9.38
2023-10-29T01:56:05.842Z,9.43
2023-10-29T02:01:15.288Z,9.46
2023-10-29T02:06:20.810Z,9.48
2023-10-29T02:11:25.265Z,9.42
2023-10-29T02:16:28.806Z,9.40
2023-10-29T02:21:33.454Z,9.41
2023-10-29T02:26:37.572Z,9.44
2023-10-29T02:31:41.622Z,9.46
2023-10-29T02:36:45.643Z,9.46
2023-10-29T02:41:49.091Z,9.51
2023-10-29T02:46:52.997Z,9.49
2023-10-29T02:51:57.594Z,9.51
2023-10-29T02:57:03.389Z,9.54
2023-10-29T03:02:07.117Z,9.51
2023-10-29T03:07:13.240Z,9.52
2023-10-29T03:12:19.068Z,9.53
2023-10-29T03:17:24.129Z,9.51
2023-10-29T03:22:27.755Z,9.49
2023-10-29T03:27:31.795Z,9.51
2023-10-29T03:32:35.359Z,9.53
2023-10-29T03:37:38.906Z,9.49
2023-10-29T03:42:42.286Z,9.52
2023-10-29T03:47:45.680Z,9.48
2023-10-29T03:52:49.158Z,9.46
2023-10-29T03:57:54.182Z,9.38
2023-10-29T04:05:14.218Z,9.53
2023-10-29T04:10:18.585Z,9.42
2023-10-29T04:15:22.770Z,9.42
2023-10-29T04:20:28.284Z,9.38
2023-10-29T04:25:32.197Z,9.42
2023-10-29T04:30:35.800Z,9.48
2023-10-29T04:35:39.652Z,9.48
2023-10-29T04:40:43.045Z,9.47
2023-10-29T04:45:46.766Z,9.53
2023-10-29T04:50:50.296Z,9.55
2023-10-29T04:55:54.896Z,9.58
2023-10-29T05:00:58.456Z,9.66
2023-10-29T05:06:03.519Z,9.58
2023-10-29T05:11:06.880Z,9.56
2023-10-29T05:16:11.875Z,9.59
2023-10-29T05:21:15.396Z,9.61
2023-10-29T05:26:19.543Z,9.69
2023-10-29T05:31:24.010Z,9.71
2023-10-29T05:36:27.676Z,9.79
2023-10-29T05:41:31.006Z,9.87
2023-10-29T05:46:34.391Z,9.94
2023-10-29T05:51:37.609Z,9.86
2023-10-29T05:56:41.863Z,9.81
2023-10-29T06:05:30.305Z,9.84
2023-10-29T06:10:34.601Z,9.69
2023-10-29T06:15:38.962Z,9.76
2023-10-29T06:20:42.640Z,9.86
2023-10-29T06:25:46.067Z,9.98
2023-10-29T06:30:49.503Z,9.97
2023-10-29T06:35:53.016Z,10.04
2023-10-29T06:40:56.567Z,10.12
2023-10-29T06:46:00.227Z,10.06
2023-10-29T06:51:04.839Z,10.18
2023-10-29T06:56:08.295Z,10.07
2023-10-29T07:01:12.140Z,10.08
2023-10-29T07:06:17.173Z,10.15
2023-10-29T07:11:20.513Z,10.31
2023-10-29T07:16:24.067Z,10.19
2023-10-29T07:21:30.023Z,10.05
2023-10-29T07:26:33.800Z,10.05
2023-10-29T07:31:38.131Z,10.21
2023-10-29T07:36:41.563Z,10.21
2023-10-29T07:41:44.901Z,10.45
2023-10-29T07:46:48.980Z,10.44
2023-10-29T07:51:52.401Z,10.38
2023-10-29T07:56:55.978Z,10.22
2023-10-29T08:02:00.409Z,10.22
2023-10-29T08:07:04.744Z,10.19
2023-10-29T08:12:08.460Z,10.21
2023-10-29T08:17:13.842Z,10.20
2023-10-29T08:22:18.105Z,10.35
2023-10-29T08:27:21.444Z,10.48
2023-10-29T08:32:24.778Z,10.41
2023-10-29T08:37:28.233Z,10.49
2023-10-29T08:42:32.564Z,10.59
2023-10-29T08:47:36.031Z,10.54
2023-10-29T08:52:39.695Z,10.69
2023-10-29T08:57:44.364Z,10.81
2023-10-29T09:02:48.200Z,11.04
2023-10-29T09:07:51.777Z,11.16
2023-10-29T09:12:56.209Z,10.95
2023-10-29T09:17:59.669Z,10.77
2023-10-29T09:23:03.176Z,10.55
2023-10-29T09:28:07.312Z,10.43
2023-10-29T09:33:12.820Z,10.65
2023-10-29T09:38:18.432Z,10.81
2023-10-29T09:43:25.430Z,10.86
2023-10-29T09:48:28.926Z,10.95
2023-10-29T09:53:35.204Z,11.39
2023-10-29T09:58:39.384Z,11.83
2023-10-29T10:05:31.039Z,12.26
2023-10-29T10:10:38.148Z,12.09
2023-10-29T10:15:42.025Z,12.12
2023-10-29T10:20:45.789Z,12.70
2023-10-29T10:25:52.021Z,13.02
2023-10-29T10:30:55.575Z,12.39
2023-10-29T10:36:00.437Z,11.89
2023-10-29T10:41:03.879Z,12.35
2023-10-29T10:46:10.286Z,12.16
2023-10-29T10:51:14.440Z,11.88
2023-10-29T10:56:18.953Z,11.84
2023-10-29T11:01:25.237Z,11.94
2023-10-29T11:06:29.098Z,11.97
2023-10-29T11:11:39.657Z,12.24
2023-10-29T11:16:59.129Z,12.77
2023-10-29T11:22:18.432Z,13.17
2023-10-29T11:27:45.017Z,13.08
2023-10-29T11:33:14.808Z,12.88
2023-10-29T11:38:34.686Z,13.42
2023-10-29T11:43:38.038Z,13.07
2023-10-29T11:48:44.983Z,13.04
2023-10-29T11:53:50.551Z,12.71
2023-10-29T11:59:05.520Z,12.43
2023-10-29T12:04:10.354Z,12.18
2023-10-29T12:09:19.131Z,11.93
2023-10-29T12:19:56.880Z,11.77
2023-10-29T12:25:02.150Z,11.73
2023-10-29T12:30:07.760Z,11.77
2023-10-29T12:35:11.169Z,11.76
2023-10-29T12:40:16.294Z,11.78
2023-10-29T12:45:30.156Z,11.89
2023-10-29T12:50:49.229Z,11.93
2023-10-29T12:55:54.119Z,11.86
2023-10-29T13:05:17.562Z,11.89
2023-10-29T13:10:22.101Z,11.59
2023-10-29T13:15:25.738Z,11.59
2023-10-29T13:20:32.211Z,11.76
2023-10-29T13:25:35.612Z,11.95
2023-10-29T13:30:38.968Z,12.07
2023-10-29T13:35:43.710Z,12.99
2023-10-29T13:40:47.318Z,13.19
2023-10-29T13:46:05.973Z,12.17
2023-10-29T13:51:09.853Z,11.68
2023-10-29T13:56:14.546Z,11.48
2023-10-29T14:01:20.004Z,11.32
2023-10-29T14:06:23.733Z,11.31
2023-10-29T14:11:27.551Z,11.34
2023-10-29T14:16:41.668Z,11.31
2023-10-29T14:21:47.047Z,11.24
2023-10-29T14:26:52.446Z,11.22
2023-10-29T14:31:55.875Z,11.24
2023-10-29T14:36:59.660Z,11.20
2023-10-29T14:42:04.707Z,11.12
2023-10-29T14:47:08.780Z,11.03
2023-10-29T14:52:12.186Z,10.94
2023-10-29T14:57:28.392Z,10.86
2023-10-29T15:02:21.465Z,10.80
2023-10-29T15:07:26.322Z,10.74
2023-10-29T15:12:30.045Z,10.71
2023-10-29T15:17:34.728Z,10.72
2023-10-29T15:22:38.097Z,10.72
2023-10-29T15:27:42.126Z,10.75
2023-10-29T15:32:47.034Z,10.68
2023-10-29T15:37:51.005Z,10.48
2023-10-29T15:42:54.625Z,10.22
2023-10-29T15:47:58.878Z,9.95
2023-10-29T15:53:02.561Z,9.63
2023-10-29T15:58:06.150Z,9.45
2023-10-29T16:05:58.398Z,9.27
2023-10-29T16:11:01.937Z,9.03
2023-10-29T16:16:08.304Z,8.89
2023-10-29T16:21:12.810Z,8.64
2023-10-29T16:26:17.229Z,8.55
2023-10-29T16:31:21.158Z,8.47
2023-10-29T16:36:26.285Z,8.34
2023-10-29T16:41:30.627Z,8.29
2023-10-29T16:46:35.631Z,8.21
2023-10-29T16:51:39.255Z,8.12
2023-10-29T16:56:42.757Z,8.01
2023-10-29T17:01:47.025Z,7.88
2023-10-29T17:06:50.816Z,7.79
2023-10-29T17:11:55.427Z,7.69
2023-10-29T17:17:00.514Z,7.63
2023-10-29T17:22:04.358Z,7.59
2023-10-29T17:27:08.102Z,7.54
2023-10-29T17:32:13.578Z,7.47
2023-10-29T17:37:19.022Z,7.43
2023-10-29T17:42:24.022Z,7.41
2023-10-29T17:47:28.033Z,7.42
2023-10-29T17:52:34.616Z,7.47
2023-10-29T17:57:39.848Z,7.54
2023-10-29T18:02:43.715Z,7.61
2023-10-29T18:07:47.478Z,7.60
2023-10-29T18:12:52.078Z,7.48
2023-10-29T18:17:55.614Z,7.48
2023-10-29T18:22:59.260Z,7.48
2023-10-29T18:28:04.808Z,7.57
2023-10-29T18:33:09.598Z,7.73
2023-10-29T18:38:20.750Z,7.78
2023-10-29T18:43:25.832Z,7.72
2023-10-29T18:48:30.188Z,7.57
2023-10-29T18:53:34.281Z,7.47
2023-10-29T18:58:41.846Z,7.37
2023-10-29T19:05:19.305Z,7.31
2023-10-29T19:10:23.340Z,7.10
2023-10-29T19:15:34.271Z,6.99
2023-10-29T19:20:41.904Z,6.95
2023-10-29T19:25:46.020Z,6.85
2023-10-29T19:31:05.106Z,6.77
2023-10-29T19:35:56.502Z,6.68
2023-10-29T19:41:01.397Z,6.65
2023-10-29T19:46:05.361Z,6.61
2023-10-29T19:51:09.239Z,6.52
2023-10-29T19:56:12.926Z,6.43
2023-10-29T20:01:18.464Z,6.38
2023-10-29T20:06:21.864Z,6.38
2023-10-29T20:11:25.343Z,6.36
2023-10-29T20:16:28.835Z,6.32
2023-10-29T20:21:33.283Z,6.26
2023-10-29T20:26:38.068Z,6.21
2023-10-29T20:31:41.482Z,6.14
2023-10-29T20:36:44.774Z,6.13
2023-10-29T20:41:48.351Z,6.09
2023-10-29T20:46:51.791Z,6.01
2023-10-29T20:51:56.628Z,5.99
2023-10-29T20:57:00.008Z,5.96
2023-10-29T21:02:03.765Z,5.88
2023-10-29T21:07:06.981Z,5.84
2023-10-29T21:12:11.259Z,5.77
2023-10-29T21:17:14.648Z,5.72
2023-10-29T21:22:18.124Z,5.71
2023-10-29T21:27:21.544Z,5.64
2023-10-29T21:32:24.968Z,5.62
2023-10-29T21:37:28.991Z,5.60
2023-10-29T21:42:32.811Z,5.57
2023-10-29T21:47:38.768Z,5.61
2023-10-29T21:52:42.835Z,5.59
2023-10-29T21:57:46.132Z,5.51
2023-10-29T22:06:05.161Z,5.57
2023-10-29T22:11:10.090Z,5.41
2023-10-29T22:16:18.720Z,5.39
2023-10-29T22:21:22.766Z,5.39
2023-10-29T22:26:26.272Z,5.34
2023-10-29T22:31:29.718Z,5.31
2023-10-29T22:36:33.629Z,5.28
2023-10-29T22:41:37.441Z,5.21
2023-10-29T22:46:41.392Z,5.22
2023-10-29T22:51:46.515Z,5.22
2023-10-29T22:56:50.039Z,5.18
2023-10-29T23:01:53.653Z,5.16
2023-10-29T23:06:57.064Z,5.12
2023-10-29T23:12:00.838Z,5.08
2023-10-29T23:17:04.241Z,5.05
2023-10-29T23:22:08.337Z,5.03
2023-10-29T23:27:12.099Z,5.06
2023-10-29T23:32:15.694Z,5.02
2023-10-29T23:37:19.194Z,5.02
2023-10-29T23:42:23.051Z,4.98
2023-10-29T23:47:26.466Z,4.96
2023-10-29T23:52:30.448Z,4.99
2023-10-29T23:57:35.225Z,5.01
